Terminal Aerodrome Forecast
Issued by NWS Spokane, WA

Home | Current Version | Previous Version | Text Only | Print | Product List | Glossary On
Versions: 1 2 3 4 5 6 7 8 9 10 11 12 13 14 15 16 17 18 19 20 21 22 23 24 25 26 27 28 29 30 31 32 33 34 35
000
FTUS46 KOTX 211139
TAFLWS
TAF
KLWS 211139Z 2112/2212 06004KT P6SM VCSH SCT035 OVC060
     FM211700 27008KT P6SM SCT040 OVC070
     FM220700 13008KT P6SM BKN080 OVC150=

USA.gov is the U.S. government's official web portal to all federal, state and local government web resources and services.